Data for 07/12/2006

Time Sea-Level Adjusted Pressure Absolute Pressure Temperature Relative Humidity Dew Point   
(mb) (inHg) (mb) (inHg) (C) (F) (%) (C) (F)
00:05 1016 30 846 24.98 20 68.1 41 6.6 43.9
00:10 1016 30 846 24.98 19.9 67.8 43 7.2 45
00:15 1016 30 846 24.98 19.8 67.6 41 6.3 43.4
00:20 1016 30 846 24.98 20.1 68.2 40 6.4 43.5
00:25 1016 30 846 24.98 20.4 68.8 37 5.5 42
00:30 1016 30 846 24.98 20.5 68.9 39 6.3 43.4
00:35 1016 30 846 24.98 20.3 68.6 40 6.5 43.7
00:40 1016 30 846 24.98 20.3 68.6 39 6 42.8
00:45 1016 30 846 24.98 20.4 68.6 38 5.9 42.6
00:50 1016 30 846 24.98 20.6 69 38 5.9 42.7
00:55 1016 30 846 24.98 20.5 68.9 38 5.8 42.5
01:00 1016 30 846 24.98 20.4 68.7 38 5.8 42.4
01:05 1016 30 846 24.98 20.5 68.9 38 5.9 42.6
01:10 1016 30 845 24.95 20.4 68.8 38 5.8 42.4
01:15 1016 30 845 24.95 20.4 68.7 38 5.9 42.6
01:20 1016 30 845 24.95 20.1 68.3 39 5.9 42.7
01:25 1016 30 845 24.95 20.2 68.3 39 5.8 42.5
01:30 1016 30 845 24.95 20.2 68.3 39 5.9 42.5
01:35 1016 30 845 24.95 20.1 68.2 38 5.6 42.2
01:40 1016 30 845 24.95 20.1 68.1 39 5.9 42.6
01:45 1016 30 845 24.95 19.9 67.9 39 5.7 42.2
01:50 1016 30 845 24.95 20 68.1 38 5.4 41.7
01:55 1016 30 845 24.95 20.2 68.3 37 5.3 41.5
02:00 1016 30 845 24.95 20.5 68.8 36 5.1 41.2
02:05 1016 30 845 24.95 20.5 68.9 38 5.7 42.3
02:10 1016 30 845 24.95 20.3 68.5 38 5.7 42.3
02:15 1016 30 845 24.95 20.2 68.3 38 5.7 42.2
02:20 1016 30 845 24.95 20.2 68.4 38 5.7 42.2
02:25 1016 30 845 24.95 20 67.9 39 5.9 42.6
02:30 1016 30 845 24.95 19.6 67.4 41 6.2 43.1
02:35 1016 30 845 24.95 19.2 66.6 42 6.3 43.3
02:40 1016 30 845 24.95 19.4 66.8 40 5.5 41.9
02:45 1016 30 845 24.95 19.4 66.9 41 5.9 42.6
02:50 1016 30 845 24.95 19.3 66.7 41 5.8 42.5
02:55 1016 30 845 24.95 19.3 66.7 40 5.6 42
03:00 1016 30 845 24.95 19.5 67 40 5.6 42
03:05 1016 30 845 24.95 19.6 67.2 40 5.7 42.3
03:10 1016 30 845 24.95 19.5 67.1 40 5.7 42.3
03:15 1016 30 845 24.95 19.4 66.9 41 5.9 42.7
03:20 1016 30 845 24.95 19.1 66.5 42 6.2 43.1
03:25 1016 30 845 24.95 18.9 66.1 43 6.1 42.9
03:30 1016 30 845 24.95 18.8 65.8 43 6.1 43
03:35 1016 30 845 24.95 18.6 65.5 42 5.7 42.2
03:40 1016 30 845 24.95 18.9 66.1 41 5.6 42.1
03:45 1016 30 845 24.95 19 66.1 42 5.8 42.5
03:50 1016 30 845 24.95 18.8 65.9 43 6.1 42.9
03:55 1016 30 845 24.95 18.4 65.2 44 6.2 43.2
04:00 1016 30 845 24.95 18.1 64.6 45 6.2 43.2
04:05 1016 30 845 24.95 17.9 64.1 46 6.3 43.3
04:10 1016 30 845 24.95 17.8 64 46 6.1 43
04:15 1016 30 845 24.95 17.6 63.6 46 6.1 42.9
04:20 1016 30 845 24.95 17.6 63.6 47 6.1 43
04:25 1016 30 845 24.95 17.4 63.4 46 5.8 42.5
04:30 1016 30 845 24.95 17.5 63.5 46 6 42.7
04:35 1016 30 845 24.95 17.5 63.4 50 6.9 44.4
04:40 1016 30 845 24.95 17.3 63.1 47 5.9 42.6
04:45 1016 30 845 24.95 17.5 63.4 48 6.4 43.6
04:50 1016 30 845 24.95 17.1 62.8 48 6.3 43.3
04:55 1016 30 845 24.95 16.8 62.2 49 6.1 43
05:00 1016 30 845 24.95 17 62.7 47 5.9 42.6
05:05 1016 30 845 24.95 16.8 62.3 50 6.3 43.3
05:10 1016 30 845 24.95 16.8 62.3 48 5.9 42.7
05:15 1016 30 845 24.95 17.1 62.7 47 5.7 42.2
05:20 1016 30 845 24.95 17.4 63.4 46 5.8 42.4
05:25 1016 30 845 24.95 17.4 63.4 45 5.6 42.1
05:30 1016 30 845 24.95 17.4 63.3 47 6.2 43.2
05:35 1016 30 845 24.95 16.6 61.9 52 6.7 44.1
05:40 1016 30 845 24.95 16.1 60.9 52 6.3 43.3
05:45 1016 30 845 24.95 16 60.9 52 6.3 43.3
05:50 1016 30 845 24.95 16 60.8 52 6.2 43.2
05:55 1016 30 845 24.95 16.1 61 52 6.4 43.4
06:00 1016 30 845 24.95 16.2 61.1 51 6.1 43
06:05 1016 30 845 24.95 16.6 62 49 5.9 42.7
06:10 1016 30 845 24.95 17 62.7 47 5.6 42.1
06:15 1016 30 845 24.95 17.1 62.7 47 5.9 42.7
06:20 1016 30 845 24.95 17 62.6 48 6.1 43
06:25 1016 30 845 24.95 16.7 62 51 6.5 43.6
06:30 1016 30 845 24.95 16.7 62 49 6.1 43
06:35 1016 30 845 24.95 16.6 61.9 49 6.1 43
06:40 1016 30 845 24.95 16.8 62.2 48 5.9 42.6
06:45 1016 30 845 24.95 17 62.7 50 6.6 43.9
06:50 1016 30 845 24.95 17.3 63.2 48 6.4 43.4
06:55 1016 30 845 24.95 17.3 63.2 48 6.3 43.4
07:00 1016 30 845 24.95 17.6 63.6 48 6.6 43.9
07:05 1016 30 845 24.95 17.6 63.7 48 6.5 43.7
07:10 1016 30 845 24.95 17.9 64.2 47 6.5 43.7
07:15 1016 30 845 24.95 18.1 64.6 46 6.5 43.7
07:20 1016 30 845 24.95 18.4 65.2 46 6.8 44.2
07:25 1016 30 845 24.95 18.5 65.4 46 6.8 44.2
07:30 1016 30 845 24.95 18.7 65.6 46 7 44.6
07:35 1016 30 845 24.95 18.8 65.8 47 7.2 45
07:40 1016 30 845 24.95 19 66.2 44 6.7 44.1
07:45 1016 30 845 24.95 19.4 67 44 7 44.5
07:50 1016 30 845 24.95 19.7 67.4 42 6.7 44
07:55 1016 30 845 24.95 19.8 67.7 42 6.8 44.3
08:00 1016 30 845 24.95 20.1 68.3 41 6.5 43.7
08:05 1016 30 845 24.95 20.5 69 42 7.3 45.1
08:10 1016 30 845 24.95 20.7 69.3 43 8 46.4
08:15 1016 30 845 24.95 21.1 69.9 43 8.2 46.7
08:20 1016 30 845 24.95 21.1 70 43 8.4 47.1
08:25 1016 30 845 24.95 21.3 70.4 41 7.8 46
08:30 1016 30 845 24.95 21.5 70.7 40 7.5 45.5
08:35 1016 30 845 24.95 21.8 71.2 40 7.9 46.2
08:40 1016 30 845 24.95 21.8 71.3 41 8.2 46.8
08:45 1016 30 845 24.95 22.1 71.8 40 8.1 46.5
08:50 1016 30 845 24.95 22.4 72.3 40 8.3 47
08:55 1016 30 845 24.95 22.5 72.4 40 8.5 47.3
09:00 1016 30 845 24.95 22.7 72.9 40 8.5 47.3
09:05 1016 30 845 24.95 22.9 73.1 39 8.5 47.2
09:10 1016 30 845 24.95 23 73.4 38 8.3 46.9
09:15 1016 30 845 24.95 23.3 73.9 37 8.1 46.7
09:20 1016 30 845 24.95 23.1 73.5 38 8.3 46.9
09:25 1016 30 845 24.95 23.3 73.9 37 8.1 46.7
09:30 1016 30 845 24.95 23.7 74.7 38 8.6 47.5
09:35 1016 30 845 24.95 24 75.2 35 8 46.4
09:40 1016 30 845 24.95 24.1 75.4 35 7.7 45.9
09:45 1016 30 845 24.95 24.4 75.9 35 8.1 46.6
09:50 1016 30 845 24.95 24.6 76.4 34 8.1 46.5
09:55 1016 30 845 24.95 25 77 33 7.9 46.2
10:00 1016 30 845 24.95 25.5 77.8 31 7.5 45.4
10:05 1016 30 845 24.95 25.5 77.9 33 8.2 46.7
10:10 1016 30 845 24.95 26 78.9 30 7.4 45.3
10:15 1016 30 845 24.95 26.7 80 28 6.8 44.3
10:20 1015 29.97 845 24.95 26.5 79.6 28 6.7 44.1
10:25 1015 29.97 845 24.95 27 80.5 26 6 42.8
10:30 1015 29.97 844 24.92 27.5 81.4 25 5.9 42.6
10:35 1015 29.97 844 24.92 27.4 81.3 25 5.7 42.3
10:40 1015 29.97 844 24.92 27.5 81.6 26 6.4 43.5
10:45 1015 29.97 844 24.92 28.2 82.8 22 5.1 41.2
10:50 1015 29.97 844 24.92 27.8 82 24 5.6 42.1
10:55 1015 29.97 844 24.92 27.7 81.8 24 5.9 42.6
11:00 1015 29.97 844 24.92 28.1 82.5 25 6.3 43.4
11:05 1015 29.97 844 24.92 29.2 84.5 22 5.6 42.1
11:10 1015 29.97 844 24.92 29.8 85.7 22 6.4 43.5
11:15 1015 29.97 844 24.92 29.5 85 23 6.3 43.3
11:20 1015 29.97 844 24.92 28.8 83.9 22 5.5 41.8
11:25 1015 29.97 844 24.92 29 84.2 22 5.6 42
11:30 1015 29.97 844 24.92 28.8 83.8 24 6.6 43.8
11:35 1015 29.97 844 24.92 28.7 83.6 24 6.4 43.5
11:40 1015 29.97 844 24.92 28.4 83.1 26 7.3 45.1
11:45 1015 29.97 844 24.92 29 84.3 25 7.2 44.9
11:50 1015 29.97 844 24.92 30 86.1 21 5.8 42.5
11:55 1015 29.97 844 24.92 29.4 84.9 23 6.4 43.5
12:00 1015 29.97 844 24.92 28.5 83.3 25 6.8 44.3
12:05 1015 29.97 844 24.92 29.3 84.7 22 5.8 42.4
12:10 1015 29.97 844 24.92 30.1 86.2 21 5.8 42.4
12:15 1015 29.97 844 24.92 28.7 83.6 22 5.1 41.2
12:20 1015 29.97 844 24.92 28.5 83.3 22 4.8 40.7
12:25 1015 29.97 844 24.92 29.5 85 21 5.2 41.4
12:30 1015 29.97 844 24.92 30.3 86.5 21 5.7 42.3
12:35 1015 29.97 844 24.92 30.3 86.6 21 6 42.8
12:40 1015 29.97 844 24.92 31 87.7 20 6 42.8
12:45 1015 29.97 844 24.92 30.1 86.2 21 5.7 42.3
12:50 1015 29.97 844 24.92 29.4 84.8 23 6.3 43.4
12:55 1015 29.97 844 24.92 29.7 85.4 21 5 41.1
13:00 1014 29.94 844 24.92 29.9 85.9 21 5.4 41.7
13:05 1014 29.94 843 24.89 30.3 86.5 22 6.8 44.2
13:10 1014 29.94 843 24.89 30.3 86.5 24 7.7 45.8
13:15 1014 29.94 843 24.89 29.5 85.1 26 8.1 46.5
13:20 1014 29.94 843 24.89 29 84.3 26 7.6 45.8
13:25 1014 29.94 843 24.89 28.6 83.5 27 8.4 47.1
13:30 1014 29.94 843 24.89 28.2 82.8 28 8.3 47
13:35 1014 29.94 843 24.89 27.8 82 29 8.4 47.1
13:40 1014 29.94 843 24.89 27.3 81.2 28 7.6 45.7
13:45 1014 29.94 843 24.89 25.3 77.5 44 12.4 54.3
13:50 1015 29.97 844 24.92 19.3 66.7 58 11 51.9
13:55 1015 29.97 844 24.92 18 64.3 73 13.1 55.5
14:00 1014 29.94 844 24.92 17.5 63.6 62 10.2 50.3
14:05 1014 29.94 844 24.92 18.7 65.6 51 8.3 47
14:10 1014 29.94 844 24.92 20.4 68.6 54 10.9 51.6
14:15 1014 29.94 844 24.92 20.6 69 48 9.2 48.6
14:20 1014 29.94 844 24.92 21.3 70.3 41 7.5 45.5
14:25 1014 29.94 844 24.92 22.4 72.4 44 9.6 49.3
14:30 1014 29.94 844 24.92 22.2 71.9 59 13.9 57.1
14:35 1014 29.94 844 24.92 20.9 69.5 59 12.6 54.6
14:40 1014 29.94 844 24.92 20.4 68.6 54 11 51.8
14:45 1014 29.94 843 24.89 20.4 68.7 56 11.4 52.6
14:50 1014 29.94 843 24.89 20.5 68.8 59 12.3 54.1
14:55 1014 29.94 843 24.89 20.2 68.3 63 13 55.3
15:00 1014 29.94 843 24.89 20.1 68.1 63 12.8 55.1
15:05 1014 29.94 843 24.89 19.7 67.5 67 13.6 56.4
15:10 1014 29.94 843 24.89 18.8 65.8 69 13 55.4
15:15 1014 29.94 843 24.89 19 66.1 73 14 57.2
15:20 1014 29.94 843 24.89 19.1 66.3 67 13 55.3
15:25 1014 29.94 844 24.92 19.3 66.7 74 14.6 58.2
15:30 1015 29.97 844 24.92 19.6 67.2 72 14.4 58
15:35 1015 29.97 844 24.92 20.2 68.3 65 13.5 56.3
15:40 1015 29.97 844 24.92 21 69.8 46 9.2 48.5
15:45 1016 30 845 24.95 21.2 70.2 46 9.3 48.7
15:50 1016 30 845 24.95 19.8 67.6 60 11.8 53.3
15:55 1017 30.03 846 24.98 17.4 63.3 69 11.8 53.3
16:00 1018 30.06 847 25.01 17 62.6 69 11.3 52.4
16:05 1018 30.06 848 25.04 17.1 62.7 68 11.1 52
16:10 1019 30.09 848 25.04 16.8 62.2 71 11.6 52.9
16:15 1019 30.09 849 25.07 16.4 61.4 72 11.4 52.6
16:20 1020 30.12 849 25.07 15.9 60.6 75 11.6 52.8
16:25 1019 30.09 849 25.07 15.9 60.7 72 10.9 51.6
16:30 1019 30.09 848 25.04 16.1 61.1 71 11 51.8
16:35 1019 30.09 848 25.04 16.3 61.3 70 10.9 51.6
16:40 1019 30.09 848 25.04 16.4 61.4 70 11 51.7
16:45 1019 30.09 848 25.04 16.3 61.4 71 11.1 52
16:50 1019 30.09 848 25.04 16.4 61.5 69 10.9 51.5
16:55 1019 30.09 849 25.07 16.2 61.2 71 11 51.8
17:00 1019 30.09 848 25.04 16 60.7 74 11.4 52.5
17:05 1019 30.09 848 25.04 15.4 59.7 78 11.7 53
17:10 1018 30.06 848 25.04 15.5 59.8 80 12 53.6
17:15 1018 30.06 847 25.01 15.7 60.3 72 10.8 51.4
17:20 1018 30.06 847 25.01 16 60.7 75 11.5 52.7
17:25 1018 30.06 847 25.01 15.6 60.1 79 12.1 53.7
17:30 1017 30.03 847 25.01 15.1 59.2 82 12.1 53.8
17:35 1017 30.03 846 24.98 14.7 58.4 86 12.3 54.2
17:40 1017 30.03 847 25.01 14.8 58.6 84 12.1 53.7
17:45 1017 30.03 846 24.98 14.6 58.3 85 12.2 53.9
17:50 1017 30.03 846 24.98 14.5 58 86 12.1 53.8
17:55 1017 30.03 846 24.98 14.4 58 87 12.4 54.3
18:00 1017 30.03 847 25.01 14.7 58.5 84 12.2 53.9
18:05 1017 30.03 846 24.98 15 59 83 12.2 54
18:10 1017 30.03 846 24.98 14.9 58.9 82 12 53.6
18:15 1017 30.03 846 24.98 15.2 59.3 80 11.8 53.2
18:20 1017 30.03 846 24.98 15.6 60.1 81 12.5 54.5
18:25 1017 30.03 846 24.98 16.1 60.9 76 11.9 53.4
18:30 1017 30.03 847 25.01 16.2 61.1 82 13.1 55.5
18:35 1017 30.03 847 25.01 16.5 61.6 78 12.6 54.7
18:40 1018 30.06 847 25.01 16.4 61.5 81 13.2 55.8
18:45 1018 30.06 847 25.01 16.1 61 80 12.7 54.9
18:50 1018 30.06 847 25.01 16.2 61.1 86 13.9 57
18:55 1018 30.06 847 25.01 16.2 61.1 82 13.2 55.7
19:00 1018 30.06 847 25.01 16.5 61.6 79 12.8 55
19:05 1018 30.06 847 25.01 16.6 61.9 79 12.9 55.2
19:10 1018 30.06 847 25.01 16.7 62 73 12 53.5
19:15 1018 30.06 847 25.01 16.6 61.8 75 12.2 54
19:20 1018 30.06 847 25.01 16.5 61.7 75 12 53.7
19:25 1018 30.06 847 25.01 16.4 61.6 76 12.3 54.1
19:30 1017 30.03 847 25.01 16.3 61.3 76 12 53.7
19:35 1017 30.03 847 25.01 16.2 61.2 80 12.8 55.1
19:40 1017 30.03 846 24.98 16.3 61.3 78 12.5 54.5
19:45 1017 30.03 847 25.01 16.4 61.5 77 12.5 54.4
19:50 1017 30.03 846 24.98 16.4 61.6 76 12.3 54.1
19:55 1017 30.03 846 24.98 16.5 61.6 76 12.3 54.2
20:00 1017 30.03 846 24.98 16.7 62 74 12 53.6
20:05 1017 30.03 846 24.98 16.7 62.1 76 12.5 54.4
20:10 1017 30.03 846 24.98 16.7 62.1 75 12.3 54.1
20:15 1017 30.03 846 24.98 16.6 62 72 11.6 52.9
20:20 1017 30.03 846 24.98 16.7 62 76 12.6 54.6
20:25 1017 30.03 846 24.98 16.7 62 70 11.3 52.3
20:30 1017 30.03 846 24.98 16.7 62 73 11.9 53.4
20:35 1017 30.03 846 24.98 16.5 61.7 73 11.6 52.9
20:40 1017 30.03 846 24.98 16.5 61.6 72 11.4 52.4
20:45 1017 30.03 846 24.98 16.4 61.6 67 10.5 50.8
20:50 1017 30.03 846 24.98 16.5 61.6 74 11.8 53.2
20:55 1017 30.03 846 24.98 16.4 61.5 69 10.7 51.2
21:00 1017 30.03 846 24.98 16.3 61.4 76 12.1 53.7
21:05 1017 30.03 846 24.98 16.2 61.1 73 11.3 52.4
21:10 1017 30.03 846 24.98 16.2 61.1 74 11.7 53
21:15 1017 30.03 846 24.98 16.1 61 74 11.4 52.6
21:20 1017 30.03 846 24.98 15.9 60.7 79 12.3 54.1
21:25 1017 30.03 846 24.98 15.6 60.2 83 12.8 55
21:30 1018 30.06 847 25.01 15.5 59.9 82 12.4 54.4
21:35 1018 30.06 848 25.04 15.6 60.1 78 11.9 53.4
21:40 1019 30.09 848 25.04 15.8 60.4 77 11.8 53.3
21:45 1019 30.09 848 25.04 15.6 60 80 12.1 53.8
21:50 1019 30.09 849 25.07 15.4 59.7 82 12.4 54.4
21:55 1019 30.09 848 25.04 15.2 59.4 85 12.8 55
22:00 1019 30.09 848 25.04 14.9 58.9 84 12.3 54.2
22:05 1020 30.12 849 25.07 14.8 58.6 85 12.3 54.2
22:10 1020 30.12 849 25.07 14.7 58.4 84 12 53.6
22:15 1020 30.12 849 25.07 14.7 58.4 84 12 53.6
22:20 1020 30.12 849 25.07 14.7 58.5 83 11.8 53.2
22:25 1020 30.12 849 25.07 14.7 58.5 83 12 53.5
22:30 1020 30.12 849 25.07 14.6 58.3 85 12.1 53.7
22:35 1020 30.12 849 25.07 14.5 58.1 84 11.9 53.5
22:40 1020 30.12 849 25.07 14.5 58.1 83 11.8 53.2
22:45 1020 30.12 849 25.07 14.6 58.3 84 12 53.6
22:50 1020 30.12 850 25.1 14.6 58.2 84 11.9 53.5
22:55 1020 30.12 850 25.1 14.5 58.1 85 12 53.6
23:00 1020 30.12 850 25.1 14.5 58.1 83 11.7 53
23:05 1021 30.15 850 25.1 14.4 58 82 11.4 52.5
23:10 1021 30.15 850 25.1 14.4 57.9 82 11.4 52.5
23:15 1021 30.15 850 25.1 14.4 57.9 83 11.5 52.7
23:20 1020 30.12 850 25.1 14.3 57.8 82 11.4 52.5
23:25 1021 30.15 850 25.1 14.3 57.7 83 11.4 52.5
23:30 1021 30.15 850 25.1 14.2 57.6 84 11.6 52.8
23:35 1021 30.15 850 25.1 14.2 57.6 85 11.7 53
23:40 1020 30.12 849 25.07 14.2 57.5 86 11.9 53.5
23:45 1020 30.12 849 25.07 13.9 56.9 87 11.7 53
23:50 1019 30.09 849 25.07 13.5 56.3 91 12 53.7
23:55 1019 30.09 849 25.07 13.2 55.7 91 11.7 53
24:00 1020 30.12 849 25.07 13.1 55.6 91 11.8 53.2